createdAt,value
2022-09-15T00:01:12.611Z,13.15
2022-09-15T00:03:40.628Z,13.45
2022-09-15T00:06:09.603Z,13.45
2022-09-15T00:08:37.243Z,13.48
2022-09-15T00:11:16.023Z,13.07
2022-09-15T00:13:43.262Z,13.23
2022-09-15T00:16:15.262Z,13.20
2022-09-15T00:18:44.224Z,12.73
2022-09-15T00:21:19.108Z,12.43
2022-09-15T00:23:47.383Z,12.65
2022-09-15T00:26:18.232Z,13.43
2022-09-15T00:28:46.075Z,13.15
2022-09-15T00:31:17.630Z,13.45
2022-09-15T00:33:52.541Z,14.02
2022-09-15T00:36:21.324Z,13.55
2022-09-15T00:38:48.688Z,13.63
2022-09-15T00:41:20.719Z,14.27
2022-09-15T00:43:57.710Z,15.27
2022-09-15T00:46:39.686Z,13.30
2022-09-15T00:49:22.315Z,13.48
2022-09-15T00:52:10.335Z,14.13
2022-09-15T00:55:15.949Z,13.23
2022-09-15T00:58:11.333Z,13.93
2022-09-15T01:00:56.792Z,13.52
2022-09-15T01:03:26.264Z,13.13
2022-09-15T01:06:03.081Z,13.55
2022-09-15T01:08:54.373Z,13.82
2022-09-15T01:11:21.499Z,13.55
2022-09-15T01:13:49.017Z,14.23
2022-09-15T01:16:58.387Z,14.38
2022-09-15T01:19:56.184Z,14.07
2022-09-15T01:22:38.017Z,14.70
2022-09-15T01:25:35.305Z,14.38
2022-09-15T01:28:23.469Z,15.38
2022-09-15T01:31:03.357Z,14.75
2022-09-15T01:34:22.858Z,14.75
2022-09-15T01:37:03.008Z,14.93
2022-09-15T01:39:39.919Z,16.10
2022-09-15T01:42:12.724Z,15.90
2022-09-15T01:44:52.074Z,15.35
2022-09-15T01:47:21.089Z,15.70
2022-09-15T01:50:09.479Z,13.52
2022-09-15T01:52:40.196Z,15.10
2022-09-15T01:55:42.096Z,14.70
2022-09-15T01:58:09.549Z,15.70
2022-09-15T02:00:45.993Z,15.82
2022-09-15T02:03:33.684Z,14.77
2022-09-15T02:06:09.066Z,14.63
2022-09-15T02:08:50.247Z,15.02
2022-09-15T02:11:21.355Z,14.57
2022-09-15T02:14:03.824Z,15.20
2022-09-15T02:16:35.347Z,14.70
2022-09-15T02:19:31.134Z,14.75
2022-09-15T02:22:20.323Z,14.32
2022-09-15T02:24:57.919Z,14.93
2022-09-15T02:27:29.030Z,15.23
2022-09-15T02:30:03.213Z,15.10
2022-09-15T02:32:32.279Z,14.25
2022-09-15T02:35:04.732Z,15.27
2022-09-15T02:37:32.408Z,15.10
2022-09-15T02:40:01.297Z,15.23
2022-09-15T02:42:31.573Z,16.30
2022-09-15T02:45:00.911Z,16.02
2022-09-15T02:47:29.039Z,15.35
2022-09-15T02:49:57.137Z,15.35
2022-09-15T02:52:24.474Z,16.38
2022-09-15T02:54:51.415Z,15.73
2022-09-15T02:57:18.424Z,16.15
2022-09-15T03:00:04.802Z,16.02
2022-09-15T03:02:32.295Z,16.65
2022-09-15T03:04:59.322Z,17.20
2022-09-15T03:07:28.655Z,16.60
2022-09-15T03:09:55.840Z,16.23
2022-09-15T03:12:23.154Z,17.17
2022-09-15T03:14:50.729Z,17.05
2022-09-15T03:17:18.410Z,16.73
2022-09-15T03:19:45.613Z,16.02
2022-09-15T03:22:12.658Z,15.40
2022-09-15T03:24:40.260Z,16.10
2022-09-15T03:27:07.349Z,15.68
2022-09-15T03:29:34.332Z,15.77
2022-09-15T03:32:01.885Z,15.25
2022-09-15T03:34:29.467Z,15.43
2022-09-15T03:36:56.586Z,16.08
2022-09-15T03:39:24.436Z,16.58
2022-09-15T03:41:51.388Z,15.68
2022-09-15T03:44:18.753Z,15.73
2022-09-15T03:46:45.858Z,15.80
2022-09-15T03:49:13.455Z,15.68
2022-09-15T03:51:41.194Z,14.82
2022-09-15T03:54:08.614Z,16.02
2022-09-15T03:56:35.894Z,16.58
2022-09-15T03:59:05.718Z,17.83
2022-09-15T04:01:33.771Z,16.23
2022-09-15T04:04:00.995Z,17.75
2022-09-15T04:06:28.616Z,17.00
2022-09-15T04:08:55.685Z,17.30
2022-09-15T04:11:23.575Z,18.58
2022-09-15T04:13:52.376Z,17.05
2022-09-15T04:16:25.979Z,17.02
2022-09-15T04:18:53.477Z,17.08
2022-09-15T04:21:24.184Z,17.98
2022-09-15T04:23:52.000Z,16.92
2022-09-15T04:26:33.901Z,16.45
2022-09-15T04:29:04.453Z,17.10
2022-09-15T04:31:34.105Z,18.13
2022-09-15T04:34:01.429Z,16.67
2022-09-15T04:36:29.536Z,16.73
2022-09-15T04:38:57.662Z,17.05
2022-09-15T04:41:27.513Z,16.52
2022-09-15T04:43:55.285Z,17.23
2022-09-15T04:46:22.412Z,17.92
2022-09-15T04:48:49.591Z,17.60
2022-09-15T04:51:19.840Z,16.98
2022-09-15T04:53:47.346Z,17.52
2022-09-15T04:56:23.130Z,16.25
2022-09-15T04:58:54.089Z,18.17
2022-09-15T05:01:28.897Z,17.10
2022-09-15T05:03:56.301Z,17.27
2022-09-15T05:06:27.033Z,19.25
2022-09-15T05:08:57.706Z,18.58
2022-09-15T05:11:26.154Z,17.33
2022-09-15T05:13:54.073Z,17.75
2022-09-15T05:16:26.302Z,18.02
2022-09-15T05:18:59.680Z,17.77
2022-09-15T05:21:27.743Z,18.90
2022-09-15T05:23:55.135Z,19.17
2022-09-15T05:26:28.339Z,18.48
2022-09-15T05:28:57.238Z,18.48
2022-09-15T05:31:28.672Z,17.35
2022-09-15T05:33:55.838Z,20.00
2022-09-15T05:36:27.501Z,18.67
2022-09-15T05:38:56.671Z,18.67
2022-09-15T05:41:25.631Z,18.65
2022-09-15T05:43:53.596Z,18.65
2022-09-15T05:46:20.987Z,19.25
2022-09-15T05:48:48.760Z,18.73
2022-09-15T05:51:15.908Z,18.48
2022-09-15T05:53:42.969Z,18.80
2022-09-15T05:56:16.344Z,17.55
2022-09-15T05:58:46.909Z,18.02
2022-09-15T06:01:21.053Z,18.02
2022-09-15T06:03:49.136Z,19.70
2022-09-15T06:06:16.441Z,18.38
2022-09-15T06:08:54.043Z,19.52
2022-09-15T06:11:27.917Z,19.63
2022-09-15T06:13:55.088Z,18.10
2022-09-15T06:16:24.495Z,19.77
2022-09-15T06:18:53.415Z,19.75
2022-09-15T06:21:27.299Z,18.83
2022-09-15T06:24:00.755Z,18.27
2022-09-15T06:26:28.913Z,18.63
2022-09-15T06:28:59.341Z,19.10
2022-09-15T06:31:29.205Z,19.40
2022-09-15T06:33:57.778Z,19.60
2022-09-15T06:36:28.494Z,19.25
2022-09-15T06:38:56.694Z,19.60
2022-09-15T06:41:24.693Z,19.65
2022-09-15T06:43:52.528Z,19.42
2022-09-15T06:46:23.076Z,17.85
2022-09-15T06:48:51.878Z,18.45
2022-09-15T06:51:22.333Z,16.35
2022-09-15T06:53:49.916Z,18.80
2022-09-15T06:56:22.519Z,18.08
2022-09-15T06:58:50.246Z,18.98
2022-09-15T07:01:25.302Z,16.88
2022-09-15T07:03:53.572Z,16.05
2022-09-15T07:06:21.465Z,16.83
2022-09-15T07:08:49.930Z,15.65
2022-09-15T07:11:18.313Z,15.23
2022-09-15T07:13:45.595Z,15.65
2022-09-15T07:16:14.223Z,15.05
2022-09-15T07:18:43.454Z,15.85
2022-09-15T07:21:17.260Z,14.80
2022-09-15T07:23:44.871Z,15.35
2022-09-15T07:26:14.835Z,15.00
2022-09-15T07:28:45.727Z,14.95
2022-09-15T07:31:17.785Z,15.35
2022-09-15T07:33:45.392Z,14.02
2022-09-15T07:36:13.134Z,14.00
2022-09-15T07:38:44.445Z,13.95
2022-09-15T07:41:15.231Z,13.98
2022-09-15T07:43:47.514Z,13.55
2022-09-15T07:46:15.353Z,13.13
2022-09-15T07:48:45.981Z,12.95
2022-09-15T07:51:14.330Z,12.45
2022-09-15T07:53:42.271Z,12.10
2022-09-15T07:56:09.611Z,11.82
2022-09-15T07:58:36.602Z,11.60
2022-09-15T08:01:11.597Z,11.35
2022-09-15T08:03:57.269Z,11.23
2022-09-15T08:06:26.903Z,11.30
2022-09-15T08:08:59.977Z,11.15
2022-09-15T08:11:28.407Z,10.63
2022-09-15T08:13:55.572Z,10.80
2022-09-15T08:16:24.715Z,10.30
2022-09-15T08:18:55.460Z,10.57
2022-09-15T08:21:23.368Z,9.80
2022-09-15T08:23:59.758Z,9.07
2022-09-15T08:26:29.121Z,9.50
2022-09-15T08:28:56.577Z,9.60
2022-09-15T08:31:25.104Z,9.52
2022-09-15T08:33:54.703Z,9.68
2022-09-15T08:36:22.621Z,9.07
2022-09-15T08:38:49.645Z,10.93
2022-09-15T08:41:29.489Z,11.15
2022-09-15T08:44:11.159Z,9.40
2022-09-15T08:46:49.230Z,9.00
2022-09-15T08:49:47.520Z,9.98
2022-09-15T08:52:36.295Z,9.25
2022-09-15T08:55:28.712Z,8.25
2022-09-15T08:57:56.086Z,8.93
2022-09-15T09:00:26.927Z,8.35
2022-09-15T09:02:59.724Z,7.70
2022-09-15T09:05:57.300Z,7.10
2022-09-15T09:08:47.614Z,5.90
2022-09-15T09:11:33.641Z,5.78
2022-09-15T09:14:42.739Z,5.63
2022-09-15T09:17:31.590Z,6.03
2022-09-15T09:20:41.322Z,5.10
2022-09-15T09:23:17.869Z,5.22
2022-09-15T09:25:45.711Z,5.90
2022-09-15T09:28:38.979Z,5.00
2022-09-15T09:31:15.772Z,5.50
2022-09-15T09:33:52.053Z,5.70
2022-09-15T09:36:19.661Z,5.45
2022-09-15T09:38:48.906Z,4.97
2022-09-15T09:41:25.505Z,5.15
2022-09-15T09:43:55.943Z,5.35
2022-09-15T09:46:23.068Z,4.25
2022-09-15T09:49:01.332Z,4.40
2022-09-15T09:51:48.142Z,4.35
2022-09-15T09:54:20.855Z,4.20
2022-09-15T09:56:53.653Z,3.83
2022-09-15T09:59:49.448Z,3.40
2022-09-15T10:02:24.720Z,3.65
2022-09-15T10:04:52.653Z,3.38
2022-09-15T10:07:24.854Z,3.42
2022-09-15T10:10:02.285Z,3.20
2022-09-15T10:12:34.482Z,2.83
2022-09-15T10:15:06.751Z,2.80
2022-09-15T10:17:36.620Z,2.88
2022-09-15T10:20:06.446Z,2.90
2022-09-15T10:22:38.548Z,2.58
2022-09-15T10:25:39.732Z,2.20
2022-09-15T10:28:19.902Z,2.10
2022-09-15T10:31:05.330Z,2.03
2022-09-15T10:33:50.740Z,1.88
2022-09-15T10:36:31.980Z,2.33
2022-09-15T10:39:21.684Z,2.53
2022-09-15T10:42:16.756Z,2.35
2022-09-15T10:45:01.770Z,2.63
2022-09-15T10:47:55.651Z,3.33
2022-09-15T10:50:22.617Z,2.63
2022-09-15T10:53:27.853Z,2.50
2022-09-15T10:55:54.690Z,1.60
2022-09-15T10:59:26.379Z,1.83
2022-09-15T11:02:21.954Z,1.85
2022-09-15T11:05:05.596Z,2.03
2022-09-15T11:08:14.180Z,1.75
2022-09-15T11:10:54.639Z,1.70
2022-09-15T11:13:47.821Z,1.60
2022-09-15T11:16:56.902Z,1.50
2022-09-15T11:20:24.069Z,1.40
2022-09-15T11:23:04.044Z,1.50
2022-09-15T11:25:35.878Z,1.70
2022-09-15T11:28:42.971Z,1.13
2022-09-15T11:31:24.997Z,1.20
2022-09-15T11:34:03.455Z,1.25
2022-09-15T11:36:45.484Z,1.13
2022-09-15T11:39:26.141Z,1.15
2022-09-15T11:41:58.822Z,1.17
2022-09-15T11:44:36.411Z,1.38
2022-09-15T11:47:40.787Z,1.42
2022-09-15T11:50:24.384Z,1.10
2022-09-15T11:53:16.831Z,1.40
2022-09-15T11:56:16.086Z,1.52
2022-09-15T11:59:20.910Z,1.30
2022-09-15T12:02:07.952Z,1.40
2022-09-15T12:05:03.802Z,1.45
2022-09-15T12:07:41.030Z,1.23
2022-09-15T12:10:43.539Z,1.30
2022-09-15T12:13:19.884Z,1.40
2022-09-15T12:15:48.817Z,1.40
2022-09-15T12:18:40.207Z,1.90
2022-09-15T12:21:19.641Z,1.42
2022-09-15T12:24:16.712Z,1.40
2022-09-15T12:26:46.612Z,1.63
2022-09-15T12:29:31.275Z,1.38
2022-09-15T12:32:27.759Z,1.50
2022-09-15T12:35:15.695Z,1.50
2022-09-15T12:37:46.615Z,1.60
2022-09-15T12:40:42.106Z,1.58
2022-09-15T12:43:12.976Z,1.40
2022-09-15T12:45:43.832Z,1.33
2022-09-15T12:48:29.215Z,1.20
2022-09-15T12:51:07.491Z,1.30
2022-09-15T12:53:38.225Z,1.50
2022-09-15T12:56:10.488Z,1.40
2022-09-15T12:58:47.075Z,1.67
2022-09-15T13:01:26.134Z,1.55
2022-09-15T13:03:57.995Z,2.08
2022-09-15T13:06:35.102Z,1.40
2022-09-15T13:09:02.019Z,1.73
2022-09-15T13:11:37.389Z,1.98
2022-09-15T13:14:06.927Z,1.90
2022-09-15T13:16:46.212Z,1.70
2022-09-15T13:19:44.300Z,1.40
2022-09-15T13:22:11.198Z,1.45
2022-09-15T13:24:44.774Z,1.88
2022-09-15T13:27:14.574Z,1.60
2022-09-15T13:29:48.851Z,1.50
2022-09-15T13:32:28.025Z,1.50
2022-09-15T13:35:21.908Z,1.65
2022-09-15T13:38:52.474Z,1.30
2022-09-15T13:41:52.890Z,1.70
2022-09-15T13:44:52.571Z,1.40
2022-09-15T13:48:10.317Z,1.80
2022-09-15T13:50:41.911Z,1.40
2022-09-15T13:53:52.567Z,1.40
2022-09-15T13:56:32.139Z,1.73
2022-09-15T13:59:08.629Z,1.40
2022-09-15T14:01:42.165Z,1.70
2022-09-15T14:04:20.724Z,1.50
2022-09-15T14:06:54.989Z,1.98
2022-09-15T14:09:34.122Z,1.40
2022-09-15T14:12:11.474Z,1.02
2022-09-15T14:14:42.328Z,1.00
2022-09-15T14:17:28.818Z,0.90
2022-09-15T14:20:00.856Z,0.90
2022-09-15T14:22:33.454Z,0.90
2022-09-15T14:25:08.412Z,1.13
2022-09-15T14:27:43.002Z,1.20
2022-09-15T14:30:29.358Z,1.10
2022-09-15T14:33:02.187Z,0.98
2022-09-15T14:35:37.455Z,1.23
2022-09-15T14:38:04.694Z,1.05
2022-09-15T14:40:39.381Z,0.95
2022-09-15T14:43:32.110Z,1.00
2022-09-15T14:46:13.464Z,1.10
2022-09-15T14:48:43.088Z,0.90
2022-09-15T14:51:33.038Z,1.20
2022-09-15T14:54:01.684Z,1.00
2022-09-15T14:56:40.897Z,0.98
2022-09-15T14:59:19.432Z,0.90
2022-09-15T15:02:24.315Z,1.50
2022-09-15T15:05:24.755Z,1.00
2022-09-15T15:07:52.523Z,0.98
2022-09-15T15:10:32.195Z,1.10
2022-09-15T15:13:12.891Z,1.52
2022-09-15T15:15:40.354Z,1.60
2022-09-15T15:18:36.440Z,1.00
2022-09-15T15:21:04.162Z,0.98
2022-09-15T15:23:32.883Z,0.98
2022-09-15T15:26:36.506Z,1.80
2022-09-15T15:29:07.067Z,1.15
2022-09-15T15:31:38.378Z,0.80
2022-09-15T15:34:21.373Z,1.10
2022-09-15T15:36:48.532Z,0.90
2022-09-15T15:39:25.085Z,1.33
2022-09-15T15:42:06.778Z,0.93
2022-09-15T15:44:34.082Z,1.10
2022-09-15T15:47:27.426Z,0.75
2022-09-15T15:50:12.930Z,0.90
2022-09-15T15:52:41.639Z,1.30
2022-09-15T15:55:13.449Z,0.95
2022-09-15T15:57:40.868Z,1.00
2022-09-15T16:00:26.024Z,1.30
2022-09-15T16:02:53.389Z,0.90
2022-09-15T16:05:25.434Z,0.90
2022-09-15T16:07:54.072Z,1.00
2022-09-15T16:10:27.343Z,0.93
2022-09-15T16:12:54.362Z,1.00
2022-09-15T16:15:22.798Z,1.30
2022-09-15T16:17:49.937Z,0.90
2022-09-15T16:20:17.320Z,1.27
2022-09-15T16:22:44.363Z,0.77
2022-09-15T16:25:52.604Z,1.25
2022-09-15T16:28:20.116Z,0.90
2022-09-15T16:30:48.973Z,1.33
2022-09-15T16:33:18.896Z,0.95
2022-09-15T16:36:03.839Z,0.90
2022-09-15T16:38:30.937Z,0.93
2022-09-15T16:40:58.265Z,0.70
2022-09-15T16:43:25.630Z,0.95
2022-09-15T16:45:53.189Z,1.10
2022-09-15T16:48:20.936Z,1.05
2022-09-15T16:51:16.137Z,1.00
2022-09-15T16:53:39.587Z,0.85
2022-09-15T16:56:10.611Z,0.80
2022-09-15T16:58:38.421Z,1.00
2022-09-15T17:01:06.374Z,0.90
2022-09-15T17:03:34.161Z,1.13
2022-09-15T17:06:02.183Z,1.55
2022-09-15T17:08:32.638Z,0.90
2022-09-15T17:11:05.135Z,1.40
2022-09-15T17:13:34.332Z,0.90
2022-09-15T17:16:02.439Z,1.23
2022-09-15T17:18:29.999Z,1.25
2022-09-15T17:20:57.421Z,1.30
2022-09-15T17:23:34.772Z,1.17
2022-09-15T17:26:05.776Z,1.20
2022-09-15T17:28:36.543Z,1.10
2022-09-15T17:31:12.028Z,1.20
2022-09-15T17:33:39.412Z,1.30
2022-09-15T17:36:07.089Z,2.25
2022-09-15T17:38:34.203Z,3.13
2022-09-15T17:41:01.354Z,3.15
2022-09-15T17:43:31.980Z,2.45
2022-09-15T17:45:59.205Z,1.90
2022-09-15T17:48:26.477Z,3.25
2022-09-15T17:50:53.864Z,3.78
2022-09-15T17:53:26.871Z,3.95
2022-09-15T17:55:55.718Z,2.97
2022-09-15T17:58:26.317Z,1.77
2022-09-15T18:00:57.311Z,1.50
2022-09-15T18:03:28.211Z,1.75
2022-09-15T18:06:00.634Z,1.60
2022-09-15T18:08:28.063Z,1.33
2022-09-15T18:10:55.605Z,1.30
2022-09-15T18:13:27.278Z,1.23
2022-09-15T18:15:55.018Z,1.08
2022-09-15T18:18:27.650Z,1.10
2022-09-15T18:20:57.987Z,1.90
2022-09-15T18:23:28.395Z,1.00
2022-09-15T18:25:55.843Z,1.98
2022-09-15T18:28:23.063Z,1.30
2022-09-15T18:30:50.837Z,1.00
2022-09-15T18:33:22.510Z,1.30
2022-09-15T18:35:54.244Z,1.10
2022-09-15T18:38:25.359Z,1.58
2022-09-15T18:40:56.331Z,1.10
2022-09-15T18:43:26.470Z,0.90
2022-09-15T18:45:59.225Z,1.10
2022-09-15T18:48:26.481Z,1.48
2022-09-15T18:50:53.644Z,1.30
2022-09-15T18:53:20.814Z,1.25
2022-09-15T18:55:49.087Z,1.08
2022-09-15T18:58:16.205Z,1.30
2022-09-15T19:00:45.861Z,1.58
2022-09-15T19:03:14.240Z,0.90
2022-09-15T19:05:41.798Z,0.98
2022-09-15T19:08:09.256Z,0.95
2022-09-15T19:10:38.413Z,1.00
2022-09-15T19:13:05.693Z,1.08
2022-09-15T19:15:34.679Z,1.65
2022-09-15T19:18:02.165Z,1.23
2022-09-15T19:20:30.055Z,1.23
2022-09-15T19:22:58.443Z,1.40
2022-09-15T19:25:25.511Z,1.23
2022-09-15T19:27:52.525Z,1.20
2022-09-15T19:30:19.690Z,1.23
2022-09-15T19:32:46.698Z,1.10
2022-09-15T19:35:13.780Z,1.27
2022-09-15T19:37:42.592Z,1.52
2022-09-15T19:40:14.175Z,1.10
2022-09-15T19:42:43.640Z,1.10
2022-09-15T19:45:13.041Z,1.10
2022-09-15T19:47:40.759Z,1.30
2022-09-15T19:50:09.624Z,1.00
2022-09-15T19:52:36.963Z,1.15
2022-09-15T19:55:07.694Z,1.45
2022-09-15T19:57:38.750Z,1.30
2022-09-15T20:00:08.759Z,1.58
2022-09-15T20:02:35.775Z,1.20
2022-09-15T20:05:03.391Z,1.73
2022-09-15T20:07:32.101Z,1.27
2022-09-15T20:09:59.218Z,1.30
2022-09-15T20:12:26.930Z,1.30
2022-09-15T20:14:57.014Z,1.30
2022-09-15T20:17:24.080Z,1.38
2022-09-15T20:19:51.474Z,1.13
2022-09-15T20:22:18.691Z,1.52
2022-09-15T20:24:45.993Z,1.20
2022-09-15T20:27:13.092Z,1.48
2022-09-15T20:29:40.440Z,1.00
2022-09-15T20:32:07.678Z,1.30
2022-09-15T20:34:34.801Z,1.20
2022-09-15T20:37:02.045Z,1.50
2022-09-15T20:39:29.221Z,1.90
2022-09-15T20:41:58.353Z,1.50
2022-09-15T20:44:26.387Z,1.30
2022-09-15T20:46:53.604Z,1.50
2022-09-15T20:49:20.629Z,1.33
2022-09-15T20:51:47.672Z,1.50
2022-09-15T20:54:15.074Z,1.30
2022-09-15T20:56:42.145Z,1.85
2022-09-15T20:59:13.804Z,1.38
2022-09-15T21:01:41.058Z,1.73
2022-09-15T21:04:10.107Z,1.55
2022-09-15T21:06:38.043Z,1.35
2022-09-15T21:09:06.083Z,1.35
2022-09-15T21:11:33.286Z,1.52
2022-09-15T21:14:01.163Z,1.25
2022-09-15T21:16:30.100Z,1.50
2022-09-15T21:18:58.859Z,1.45
2022-09-15T21:21:30.793Z,1.55
2022-09-15T21:24:04.721Z,1.50
2022-09-15T21:27:01.176Z,1.30
2022-09-15T21:29:29.188Z,1.73
2022-09-15T21:31:56.715Z,1.55
2022-09-15T21:34:24.227Z,1.48
2022-09-15T21:36:53.572Z,1.70
2022-09-15T21:39:21.293Z,1.38
2022-09-15T21:41:48.442Z,1.45
2022-09-15T21:44:16.249Z,2.08
2022-09-15T21:46:45.001Z,1.65
2022-09-15T21:49:12.028Z,1.85
2022-09-15T21:51:39.271Z,1.40
2022-09-15T21:54:06.358Z,1.50
2022-09-15T21:56:33.910Z,1.70
2022-09-15T21:59:03.341Z,2.45
2022-09-15T22:01:33.163Z,1.30
2022-09-15T22:04:03.873Z,1.40
2022-09-15T22:06:35.275Z,1.60
2022-09-15T22:09:06.831Z,1.42
2022-09-15T22:11:35.629Z,1.45
2022-09-15T22:14:08.658Z,1.52
2022-09-15T22:16:38.703Z,1.60
2022-09-15T22:19:08.251Z,1.40
2022-09-15T22:21:41.925Z,1.50
2022-09-15T22:24:13.443Z,1.88
2022-09-15T22:26:42.806Z,1.50
2022-09-15T22:29:10.454Z,1.60
2022-09-15T22:31:38.292Z,1.40
2022-09-15T22:34:05.888Z,1.63
2022-09-15T22:36:34.108Z,1.70
2022-09-15T22:39:06.200Z,1.60
2022-09-15T22:41:36.972Z,1.52
2022-09-15T22:44:05.783Z,1.52
2022-09-15T22:46:34.653Z,1.40
2022-09-15T22:49:02.141Z,1.70
2022-09-15T22:51:29.328Z,1.70
2022-09-15T22:53:57.592Z,1.90
2022-09-15T22:56:26.663Z,1.42
2022-09-15T22:58:55.195Z,1.60
2022-09-15T23:01:29.978Z,1.60
2022-09-15T23:04:02.030Z,1.67
2022-09-15T23:06:32.778Z,1.48
2022-09-15T23:09:03.717Z,1.58
2022-09-15T23:11:34.740Z,1.80
2022-09-15T23:14:02.641Z,1.38
2022-09-15T23:16:31.622Z,1.40
2022-09-15T23:18:59.718Z,1.80
2022-09-15T23:21:28.125Z,1.60
2022-09-15T23:23:55.771Z,1.75
2022-09-15T23:26:24.269Z,1.70
2022-09-15T23:28:52.114Z,1.83
2022-09-15T23:31:21.054Z,1.58
2022-09-15T23:33:48.797Z,2.45
2022-09-15T23:36:19.867Z,1.65
2022-09-15T23:38:48.127Z,1.95
2022-09-15T23:41:17.595Z,1.77
2022-09-15T23:43:45.278Z,2.10
2022-09-15T23:46:13.066Z,2.00
2022-09-15T23:48:40.536Z,1.98
2022-09-15T23:51:08.107Z,2.13
2022-09-15T23:53:35.510Z,2.20
2022-09-15T23:56:03.186Z,2.13
2022-09-15T23:58:30.402Z,2.40
